Latest Weather Observations for Gatton

IDQ60901

Issued at 11:35 pm EST Monday 1 September 2014 (issued every 10 minutes, with the page automatically refreshed every 10 minutes)

About weather observations | Map of Brisbane area stations | Latest observations for Brisbane area | Other Formats
Station Details ID: 040082 Name: UNIVERSITY OF QUEENSLAND GATTON Lat: -27.54 Lon: 152.34 Height: 89.0 m
Data from the previous 72 hours. | See also: Recent months at Gatton
Date/Time
EST
Tmp

°C
App
Tmp
°C
Dew
Point
°C
Rel
Hum
%
Delta-T

°C
Wind Press
QNH
hPa
Press
MSL
hPa
Rain
since
9 am
mm
Dir
 
Spd
km/h
Gust
km/h
Spd
kts
Gust
kts
01/11:30pm 10.9 8.3 6.1 72 2.2 SW 9 11 5 6 - - 0.0
01/11:00pm 10.3 8.1 6.3 76 1.9 WNW 7 9 4 5 - - 0.0
01/10:30pm 11.4 9.2 6.3 71 2.4 WSW 7 9 4 5 - - 0.0
01/10:00pm 12.4 9.4 6.2 66 2.9 SW 11 15 6 8 - - 0.0
01/09:30pm 11.7 10.9 6.6 71 2.4 CALM 0 0 0 0 - - 0.0
01/09:00pm 13.0 10.9 6.6 65 3.1 W 7 9 4 5 - - 0.0
01/08:30pm 13.5 12.4 7.1 65 3.1 ENE 2 7 1 4 - - 0.0
01/08:00pm 15.2 14.3 9.3 68 3.0 NE 4 11 2 6 - - 0.0
01/07:30pm 15.5 13.5 8.5 63 3.6 ENE 9 13 5 7 - - 0.0
01/07:00pm 15.5 14.8 8.5 63 3.6 W 2 6 1 3 - - 0.0
01/06:30pm 17.6 16.1 8.5 55 4.7 N 6 7 3 4 - - 0.0
01/06:00pm 22.1 20.4 8.2 41 7.3 NNE 7 9 4 5 - - 0.0
01/05:30pm 23.0 22.1 7.9 38 8.0 NNE 2 7 1 4 - - 0.0
01/05:00pm 24.3 22.5 7.9 35 8.7 NE 7 9 4 5 - - 0.0
01/04:30pm 25.3 23.2 8.3 34 9.1 NE 9 13 5 7 - - 0.0
01/04:00pm 25.3 22.7 7.9 33 9.3 NE 11 17 6 9 - - 0.0
01/03:30pm 26.0 23.8 9.4 35 9.1 NE 11 19 6 10 - - 0.0
01/03:00pm 25.9 23.5 8.8 34 9.3 NE 11 20 6 11 - - 0.0
01/02:30pm 25.5 23.6 8.9 35 9.0 E 9 15 5 8 - - 0.0
01/02:00pm 25.5 23.3 9.3 36 8.9 NE 11 17 6 9 - - 0.0
01/01:30pm 25.1 22.9 9.4 37 8.6 ENE 11 15 6 8 - - 0.0
01/01:00pm 24.3 23.1 10.2 41 7.8 ENE 7 15 4 8 - - 0.0
01/12:30pm 24.4 22.9 10.7 42 7.7 N 9 15 5 8 - - 0.0
01/12:00pm 23.3 22.4 11.4 47 6.7 ENE 7 13 4 7 - - 0.0
01/11:30am 22.4 21.9 12.6 54 5.6 NNE 7 15 4 8 - - 0.0
01/11:00am 21.8 21.6 12.9 57 5.1 N 6 13 3 7 - - 0.0
01/10:30am 20.6 19.9 13.1 62 4.3 NNE 9 13 5 7 - - 0.0
01/10:00am 20.4 20.0 13.1 63 4.2 NNW 7 9 4 5 - - 0.0
01/09:30am 19.2 19.2 13.6 70 3.2 N 6 11 3 6 - - 0.0
01/09:00am 18.2 18.2 13.5 74 2.7 WNW 6 7 3 4 - - 0.0
01/08:30am 16.2 15.8 12.9 81 1.8 W 7 11 4 6 - - 0.0
01/08:00am 14.3 12.7 11.5 83 1.5 W 11 15 6 8 - - 0.0
01/07:30am 12.7 10.5 10.9 89 0.9 W 13 15 7 8 - - 0.0
01/07:00am 11.3 9.3 10.0 92 0.7 W 11 13 6 7 - - 0.0
01/06:30am 10.6 8.5 9.7 94 0.5 W 11 13 6 7 - - 0.0
01/06:00am 10.2 8.7 9.0 92 0.6 W 7 9 4 5 - - 0.0
01/05:30am 10.6 8.8 9.4 92 0.6 WSW 9 11 5 6 - - 0.0
01/05:00am 10.7 8.9 9.3 91 0.7 W 9 11 5 6 - - 0.0
01/04:30am 11.1 9.3 9.5 90 0.8 W 9 11 5 6 - - 0.0
01/04:00am 11.7 10.1 10.1 90 0.8 WSW 9 11 5 6 - - 0.0
01/03:30am 12.5 11.2 11.1 91 0.7 WSW 9 11 5 6 - - 0.0
01/03:00am 13.0 12.1 11.2 89 1.0 W 7 9 4 5 - - 0.0
01/02:30am 13.7 13.0 11.9 89 1.0 W 7 11 4 6 - - 0.0
01/02:00am 13.7 13.0 11.4 86 1.2 WSW 6 7 3 4 - - 0.0
01/01:30am 14.0 14.6 11.9 87 1.1 CALM 0 6 0 3 - - 0.0
01/01:00am 13.9 14.5 11.9 88 1.1 CALM 0 0 0 0 - - 0.0
01/12:30am 13.3 12.5 11.2 87 1.1 SSW 6 7 3 4 - - 0.0
01/12:00am 12.8 13.1 10.9 88 1.0 WSW 0 0 0 0 - - 0.0
 
Date/Time
EST
Tmp

°C
App
Tmp
°C
Dew
Point
°C
Rel
Hum
%
Delta-T

°C
Wind Press
QNH
hPa
Press
MSL
hPa
Rain
since
9 am
mm
Dir
 
Spd
km/h
Gust
km/h
Spd
kts
Gust
kts
31/11:30pm 13.7 14.2 11.6 87 1.1 CALM 0 0 0 0 - - 0.0
31/11:00pm 14.5 14.9 11.1 80 1.8 CALM 0 0 0 0 - - 0.0
31/10:30pm 16.0 15.5 12.2 78 2.1 SE 6 7 3 4 - - 0.0
31/10:00pm 16.4 15.4 12.4 77 2.2 SSE 9 11 5 6 - - 0.0
31/09:30pm 16.6 16.2 12.4 76 2.3 SE 6 9 3 5 - - 0.0
31/09:00pm 16.6 16.0 12.2 75 2.4 SE 7 9 4 5 - - 0.0
31/08:30pm 17.1 16.1 12.4 74 2.6 ESE 9 13 5 7 - - 0.0
31/08:00pm 17.3 15.9 12.2 72 2.8 SE 11 15 6 8 - - 0.0
31/07:30pm 17.2 15.9 11.2 68 3.3 SE 9 13 5 7 - - 0.0
31/07:00pm 18.4 15.9 11.2 63 3.9 E 15 20 8 11 - - 0.0
31/06:30pm 19.7 17.2 10.9 57 4.8 E 15 22 8 12 - - 0.0
31/06:00pm 20.5 19.2 11.2 55 5.1 ENE 9 11 5 6 - - 0.0
31/05:30pm 20.9 19.7 11.5 55 5.2 N 9 11 5 6 - - 0.0
31/05:00pm 22.0 19.6 10.2 47 6.5 N 13 17 7 9 - - 0.0
31/04:30pm 24.5 22.5 8.5 36 8.6 NNE 9 13 5 7 - - 0.0
31/04:00pm 24.4 22.2 8.0 35 8.7 N 9 17 5 9 - - 0.0
31/03:30pm 24.0 22.4 8.0 36 8.5 NNE 6 11 3 6 - - 0.0
31/03:00pm 25.6 23.7 9.0 35 9.1 N 9 13 5 7 - - 0.0
31/02:30pm 25.3 23.4 9.2 36 8.8 N 9 13 5 7 - - 0.0
31/02:00pm 23.9 21.1 8.7 38 8.2 NNW 13 19 7 10 - - 0.0
31/01:30pm 25.0 23.3 8.5 35 8.9 NNE 7 15 4 8 - - 0.0
31/01:00pm 24.1 22.1 8.5 37 8.4 SE 9 15 5 8 - - 0.0
31/12:30pm 24.1 22.4 9.7 40 7.9 WNW 9 17 5 9 - - 0.0
31/12:00pm 23.8 22.9 11.2 45 7.1 NNE 7 13 4 7 - - 0.0
31/11:30am 22.4 21.3 10.5 47 6.6 ENE 7 26 4 14 - - 0.0
31/11:00am 22.8 21.8 10.9 47 6.6 N 7 17 4 9 - - 0.0
31/10:30am 21.5 20.6 11.2 52 5.7 NE 7 11 4 6 - - 0.0
31/10:00am 19.9 19.1 9.8 52 5.4 W 4 7 2 4 - - 0.0
31/09:30am 18.4 17.5 10.7 61 4.2 NW 6 9 3 5 - - 0.0
31/09:00am 17.2 15.6 10.3 64 3.7 W 9 13 5 7 - - 0.0
31/08:30am 15.5 13.5 10.3 71 2.7 W 11 15 6 8 - - 0.0
31/08:00am 13.4 11.2 9.5 77 2.0 W 11 15 6 8 - - 0.0
31/07:30am 12.0 9.8 9.2 83 1.4 W 11 13 6 7 - - 0.0
31/07:00am 10.2 8.2 8.5 89 0.8 WSW 9 13 5 7 - - 0.0
31/06:30am 9.2 6.6 7.8 91 0.7 W 11 13 6 7 - - 0.0
31/06:00am 8.8 6.5 7.4 91 0.7 W 9 11 5 6 - - 0.0
31/05:30am 9.0 6.7 7.5 90 0.7 W 9 11 5 6 - - 0.0
31/05:00am 9.4 7.2 7.8 90 0.8 WSW 9 11 5 6 - - 0.0
31/04:30am 9.4 7.2 7.7 89 0.8 WSW 9 11 5 6 - - 0.0
31/04:00am 9.4 7.5 7.7 89 0.8 W 7 9 4 5 - - 0.0
31/03:30am 10.2 8.5 8.3 88 0.9 W 7 9 4 5 - - 0.0
31/03:00am 11.0 9.0 8.8 86 1.1 WSW 9 11 5 6 - - 0.0
31/02:30am 10.9 9.4 9.0 88 0.9 W 7 9 4 5 - - 0.0
31/02:00am 11.1 10.8 8.8 86 1.1 CALM 0 6 0 3 - - 0.0
31/01:30am 12.2 10.9 9.8 85 1.2 W 7 9 4 5 - - 0.0
31/01:00am 12.0 11.9 9.6 85 1.2 CALM 0 0 0 0 - - 0.0
31/12:30am 12.5 12.6 10.0 85 1.3 CALM 0 0 0 0 - - 0.0
31/12:00am 12.0 11.2 9.6 85 1.2 WSW 4 6 2 3 - - 0.0
 
Date/Time
EST
Tmp

°C
App
Tmp
°C
Dew
Point
°C
Rel
Hum
%
Delta-T

°C
Wind Press
QNH
hPa
Press
MSL
hPa
Rain
since
9 am
mm
Dir
 
Spd
km/h
Gust
km/h
Spd
kts
Gust
kts
30/11:30pm 11.4 11.1 8.8 84 1.3 CALM 0 7 0 4 - - 0.0
30/11:00pm 11.4 11.1 8.8 84 1.3 CALM 0 0 0 0 - - 0.0
30/10:30pm 11.8 11.5 8.5 80 1.6 CALM 0 0 0 0 - - 0.0
30/10:00pm 13.3 11.8 9.0 75 2.2 SE 7 9 4 5 - - 0.0
30/09:30pm 15.1 13.4 9.7 70 2.8 SE 9 11 5 6 - - 0.0
30/09:00pm 15.3 14.3 10.3 72 2.6 SE 6 7 3 4 - - 0.0
30/08:30pm 16.4 15.3 10.0 66 3.4 ENE 6 6 3 3 - - 0.0
30/08:00pm 17.1 16.1 10.2 64 3.7 NNE 6 7 3 4 - - 0.0
30/07:30pm 17.9 15.8 9.8 59 4.3 ENE 11 15 6 8 - - 0.0
30/07:00pm 18.9 17.2 9.9 56 4.8 E 9 13 5 7 - - 0.0
30/06:30pm 19.8 18.1 10.0 53 5.3 ESE 9 13 5 7 - - 0.0
30/06:00pm 20.0 18.2 9.6 51 5.6 ESE 9 11 5 6 - - 0.0
30/05:30pm 20.8 19.1 9.7 49 6.0 ESE 9 13 5 7 - - 0.0
30/05:00pm 21.6 19.2 8.8 44 6.8 E 11 17 6 9 - - 0.0
30/04:30pm 22.9 20.9 7.0 36 8.2 E 7 11 4 6 - - 0.0
30/04:00pm 23.7 21.3 6.9 34 8.7 SSE 9 13 5 7 - - 0.0
30/03:30pm 24.3 22.7 7.9 35 8.7 NNE 6 11 3 6 - - 0.0
30/03:00pm 24.3 22.2 6.6 32 9.2 W 7 13 4 7 - - 0.0
30/02:30pm 23.5 20.9 6.3 33 8.8 S 9 15 5 8 - - 0.0
30/02:00pm 23.3 21.0 7.4 36 8.3 ESE 9 17 5 9 - - 0.0
30/01:30pm 22.5 20.0 6.7 36 8.1 SE 9 13 5 7 - - 0.0
30/01:00pm 23.0 21.4 8.7 40 7.7 SE 7 13 4 7 - - 0.0
30/12:30pm 21.4 18.6 6.9 39 7.4 SE 11 15 6 8 - - 0.0
30/12:00pm 21.5 18.8 7.3 40 7.3 ESE 11 20 6 11 - - 0.0
30/11:30am 21.0 18.1 6.5 39 7.4 SE 11 17 6 9 - - 0.0
30/11:00am 20.5 18.2 4.9 36 7.7 ENE 6 9 3 5 - - 0.0
30/10:30am 19.6 16.8 5.3 39 7.0 NW 9 13 5 7 - - 0.0
30/10:00am 17.8 15.2 6.0 46 5.8 W 9 15 5 8 - - 0.0
30/09:30am 17.2 15.0 7.8 54 4.8 WNW 9 15 5 8 - - 0.0
30/09:00am 14.6 12.1 6.7 59 3.9 W 9 15 5 8 - - 0.0
30/08:30am 12.5 10.3 6.3 66 3.0 WNW 7 11 4 6 - - 0.0
30/08:00am 10.6 7.9 5.4 70 2.4 WNW 9 13 5 7 - - 0.0
30/07:30am 8.8 5.6 5.0 77 1.7 WNW 11 13 6 7 - - 0.0
30/07:00am 6.9 3.9 4.0 82 1.2 W 9 13 5 7 - - 0.0
30/06:30am 5.7 2.2 3.5 86 0.9 W 11 13 6 7 - - 0.0
30/06:00am 5.4 1.9 3.4 87 0.8 W 11 13 6 7 - - 0.0
30/05:30am 5.7 1.8 3.5 86 0.9 W 13 17 7 9 - - 0.0
30/05:00am 5.4 1.9 3.7 89 0.7 W 11 13 6 7 - - 0.0
30/04:30am 4.9 1.7 3.1 88 0.7 W 9 11 5 6 - - 0.0
30/04:00am 5.5 2.4 3.5 87 0.8 WSW 9 11 5 6 - - 0.0
30/03:30am 6.4 3.7 3.9 84 1.1 W 7 11 4 6 - - 0.0
30/03:00am 6.8 3.8 4.3 84 1.1 W 9 13 5 7 - - 0.0
30/02:30am 7.2 3.6 4.9 85 1.0 W 13 15 7 8 - - 0.0
30/02:00am 6.7 4.2 4.5 86 1.0 W 7 9 4 5 - - 0.0
30/01:30am 7.0 5.4 4.5 84 1.1 W 2 6 1 3 - - 0.0
30/01:00am 8.0 4.8 5.3 83 1.2 WSW 11 13 6 7 - - 0.0
30/12:30am 8.6 5.5 5.5 81 1.4 WSW 11 13 6 7 - - 0.0
30/12:00am 8.8 6.1 5.5 80 1.5 W 9 11 5 6 - - 0.0

Latest Capital City Observations: Canberra | Sydney | Melbourne | Brisbane | Adelaide | Perth | Hobart | Darwin

Other Formats:

Comma delimited format used in spreadsheet applications
http://www.bom.gov.au/fwo/IDQ60901/IDQ60901.94562.axf

JavaScript Object Notation format (JSON) in row-major order
http://www.bom.gov.au/fwo/IDQ60901/IDQ60901.94562.json